Risultati

Download risultati: TXT, XML IOF

Campionato Italiano Long / Coppa Italia - 5^ pr. - WRE / Alpe Adria Cup
W B - lunghezza: 3900mt - dislivello: 130mt
pos. cat. tempo Nome società p. LB p. CITA vel.
1WB *01:00:19DI FURIA SaraIKP20.000:11:3501:00:19|3900|130|60.32
2WB *01:05:01CORONA MartinaIKP17.000:12:3001:05:01|3900|130|65.02
3WB *01:06:08CASALINI MonicaIKP14.000:12:4301:06:08|3900|130|66.13
4WB *01:16:06FOLLADOR AlessiaA.S.D. POLISPORTIVA BESAN...12.000:14:3801:16:06|3900|130|76.10
5WB *01:16:29RAUS SabrinaA.D. TRENT-O11.000:14:4201:16:29|3900|130|76.48
6WB *01:16:59GADLER AnnalisaA.D. TRENT-O10.000:14:4801:16:59|3900|130|76.98
7WB *01:19:48CIBIN IrenePUNTO K ORIENTEERING ASD9.000:15:2001:19:48|3900|130|79.80
8WB *01:21:44DANDREA ChiaraPANDA ORIENTEERING VALS. ...8.000:15:4301:21:44|3900|130|81.73
9WB *01:22:38BONAIUTI ElisaPOLISPORTIVA 'G. MASI'7.000:15:5301:22:38|3900|130|82.63
10WB *01:27:14TINELLI MelaniaA.S.D. ORIENTEERING G. GA...6.000:16:4601:27:14|3900|130|87.23
11WB *01:27:50PANZERI AlessiaA.S.D. POLISPORTIVA BESAN...5.000:16:5301:27:50|3900|130|87.83
12WB *01:28:21VAROTTI StellaERIDANO ADVENTURE a.s.d4.000:16:5901:28:21|3900|130|88.35
13WB *01:28:41FRANCHI ElisaASD AGOROSSO Orienteering...3.000:17:0301:28:41|3900|130|88.68
14WB *01:31:07ZOPPÈ GiulianaPANDA ORIENTEERING VALS. ...2.000:17:3101:31:07|3900|130|91.12
15WB *01:32:48DEGRASSI MichelaPUNTO K ORIENTEERING ASD1.000:17:5001:32:48|3900|130|92.80
16WB *01:36:15SOFFIENTINO DanielaORICUNEO1.000:18:3001:36:15|3900|130|96.25
17WB *01:36:47CURZIO Anita MariaORIENTAMONDO IVREA ASD1.000:18:3601:36:47|3900|130|96.78
18WB *01:45:13AIMETTO DonatellaORICUNEO1.000:20:1401:45:13|3900|130|105.22
19WB *01:46:04CILIBERTI ElisaA.S.D. ATLETICA INTERFLUM...1.000:20:2301:46:04|3900|130|106.07
20WB *01:50:27PAONE MartinaPOLISPORTIVA 'G. MASI'1.000:21:1401:50:27|3900|130|110.45
21WB *01:55:52PEZZÉ CaterinaGRONLAIT ORIENTEERING TEA...1.000:22:1601:55:52|3900|130|115.87
22WB *01:59:49SANZOVO ChiaraORIENTEERING TARZO A.S.D.1.000:23:0201:59:49|3900|130|119.82
23WB *02:13:52PALAMARA StefaniaTUMIZA ORIENTEERING CHIAR...1.000:25:4402:13:52|3900|130|133.87
24WB *02:23:48MANELLA CristinaA.S.D. POLISPORTIVA PUNTO...1.000:27:3902:23:48|3900|130|143.80
NPWB *00:00:00CARLUCCIO MauraC.A. SPORTLEADER A.S.D.0:00:0000:00:00|3900|130|0.00
Risultati per pagina:

PARTNER UFFICIALI FISO